Time;durP1;ratioP1;P1;durP2;ratioP2;P2;SDS_P1;SDS_P2;PMS_P1;PMS_P2;Temp;Humidity;BMP_temperature;BMP_pressure;BME280_temperature;BME280_humidity;BME280_pressure;Samples;Min_cycle;Max_cycle;Signal;HPM_P1;HPM_P2
2022/01/29 00:01:19;;;;;;;38.33;22.93;;;;;;;;;;4936240;28;20234;-73
2022/01/29 00:03:47;;;;;;;32.87;20.77;;;;;;;;;;4928725;29;20231;-72
2022/01/29 00:06:16;;;;;;;36.17;23.57;;;;;;;;;;4934364;28;20710;-73
2022/01/29 00:08:42;;;;;;;39.37;22.53;;;;;;;;;;4940029;29;20223;-72
2022/01/29 00:11:14;;;;;;;37.73;23.80;;;;;;;;;;4936292;28;20262;-72
2022/01/29 00:13:40;;;;;;;35.57;23.80;;;;;;;;;;4946262;29;20427;-74
2022/01/29 00:16:07;;;;;;;35.50;23.47;;;;;;;;;;4901798;28;20721;-72
2022/01/29 00:18:36;;;;;;;41.27;25.03;;;;;;;;;;4937562;29;20318;-72
2022/01/29 00:21:01;;;;;;;39.40;24.83;;;;;;;;;;4953475;28;20292;-73
2022/01/29 00:23:29;;;;;;;46.90;26.27;;;;;;;;;;4949065;29;20227;-72
2022/01/29 00:25:55;;;;;;;41.23;26.20;;;;;;;;;;4917565;29;20228;-73
2022/01/29 00:28:20;;;;;;;45.50;27.17;;;;;;;;;;4933580;28;20752;-72
2022/01/29 00:30:46;;;;;;;43.57;28.83;;;;;;;;;;4920623;29;20282;-74
2022/01/29 00:33:11;;;;;;;49.93;29.03;;;;;;;;;;4919622;28;20257;-72
2022/01/29 00:35:39;;;;;;;50.97;31.13;;;;;;;;;;4916091;29;20303;-72
2022/01/29 00:38:05;;;;;;;59.47;33.97;;;;;;;;;;4897777;29;20232;-72
2022/01/29 00:40:31;;;;;;;51.93;32.47;;;;;;;;;;4932118;29;20219;-74
2022/01/29 00:43:00;;;;;;;47.10;31.53;;;;;;;;;;4938992;29;20225;-73
2022/01/29 00:45:31;;;;;;;50.57;32.70;;;;;;;;;;4904924;29;20239;-73
2022/01/29 00:47:59;;;;;;;57.47;32.73;;;;;;;;;;4882591;29;20302;-74
2022/01/29 00:50:27;;;;;;;54.03;33.30;;;;;;;;;;4943383;28;20600;-73
2022/01/29 00:52:57;;;;;;;51.67;32.93;;;;;;;;;;4920170;29;20231;-72
2022/01/29 00:55:25;;;;;;;48.90;31.23;;;;;;;;;;4918266;29;20601;-73
2022/01/29 00:57:51;;;;;;;54.30;34.17;;;;;;;;;;4933280;28;20322;-72
2022/01/29 01:00:17;;;;;;;58.97;33.30;;;;;;;;;;4944581;28;20227;-72
2022/01/29 01:02:43;;;;;;;59.77;35.77;;;;;;;;;;4952995;28;20219;-72
2022/01/29 01:05:10;;;;;;;60.33;33.40;;;;;;;;;;4921221;29;20278;-73
2022/01/29 01:07:39;;;;;;;57.83;34.23;;;;;;;;;;4883088;29;20232;-73
2022/01/29 01:10:15;;;;;;;53.17;33.93;;;;;;;;;;4932015;28;20668;-73
2022/01/29 01:12:44;;;;;;;57.57;36.13;;;;;;;;;;4952587;28;20265;-73
2022/01/29 01:15:10;;;;;;;58.43;35.23;;;;;;;;;;4906643;29;20307;-73
2022/01/29 01:17:36;;;;;;;56.77;35.07;;;;;;;;;;4914756;29;20720;-72
2022/01/29 01:20:05;;;;;;;58.43;35.83;;;;;;;;;;4929008;29;20253;-73
2022/01/29 01:22:30;;;;;;;56.83;33.73;;;;;;;;;;4952190;28;20227;-72
2022/01/29 01:24:58;;;;;;;56.73;35.00;;;;;;;;;;4929109;29;20599;-72
2022/01/29 01:27:23;;;;;;;52.50;32.93;;;;;;;;;;4916448;29;20246;-73
2022/01/29 01:29:49;;;;;;;55.90;34.47;;;;;;;;;;4951897;28;20302;-73
2022/01/29 01:32:19;;;;;;;57.83;33.73;;;;;;;;;;4936935;29;20228;-72
2022/01/29 01:34:50;;;;;;;59.57;33.93;;;;;;;;;;4921031;29;20211;-72
2022/01/29 01:37:34;;;;;;;51.07;34.03;;;;;;;;;;4935772;28;20766;-73
2022/01/29 01:40:03;;;;;;;55.87;32.30;;;;;;;;;;4916557;29;20638;-73
2022/01/29 01:42:31;;;;;;;52.47;30.90;;;;;;;;;;4916112;29;20302;-72
2022/01/29 01:44:59;;;;;;;53.80;33.77;;;;;;;;;;4905120;29;20709;-73
2022/01/29 01:47:28;;;;;;;53.93;34.07;;;;;;;;;;4918708;28;20211;-73
2022/01/29 01:49:56;;;;;;;48.53;33.23;;;;;;;;;;4916470;29;20280;-73
2022/01/29 01:52:24;;;;;;;52.10;32.27;;;;;;;;;;4915672;28;20633;-72
2022/01/29 01:54:52;;;;;;;50.90;33.40;;;;;;;;;;4918530;29;20609;-73
2022/01/29 01:57:20;;;;;;;58.03;34.60;;;;;;;;;;4950928;28;20251;-72
2022/01/29 01:59:48;;;;;;;54.17;34.67;;;;;;;;;;4919368;29;20227;-73
2022/01/29 02:02:14;;;;;;;55.13;35.93;;;;;;;;;;4931215;28;20226;-73
2022/01/29 02:04:42;;;;;;;54.33;34.33;;;;;;;;;;4916328;29;20690;-73
2022/01/29 02:07:07;;;;;;;58.83;35.10;;;;;;;;;;4950084;28;20242;-74
2022/01/29 02:09:39;;;;;;;61.73;35.63;;;;;;;;;;4935928;29;20227;-72
2022/01/29 02:12:09;;;;;;;57.70;35.23;;;;;;;;;;4932488;28;20220;-73
2022/01/29 02:14:35;;;;;;;57.50;35.37;;;;;;;;;;4916203;29;20215;-73
2022/01/29 02:17:06;;;;;;;50.77;29.80;;;;;;;;;;4949480;28;20609;-73
2022/01/29 02:19:35;;;;;;;54.80;33.77;;;;;;;;;;4950795;28;20227;-72
2022/01/29 02:22:01;;;;;;;55.90;32.03;;;;;;;;;;4936748;29;20314;-73
2022/01/29 02:24:29;;;;;;;56.50;35.27;;;;;;;;;;4919446;29;20298;-73
2022/01/29 02:26:55;;;;;;;59.00;34.73;;;;;;;;;;4949837;29;20237;-73
2022/01/29 02:29:23;;;;;;;62.30;34.20;;;;;;;;;;4938121;28;20227;-73
2022/01/29 02:31:52;;;;;;;57.10;33.60;;;;;;;;;;4906160;29;20232;-73
2022/01/29 02:34:20;;;;;;;54.13;33.07;;;;;;;;;;4916021;29;20259;-73
2022/01/29 02:36:49;;;;;;;62.23;35.20;;;;;;;;;;4923820;29;20648;-73
2022/01/29 02:39:18;;;;;;;59.03;34.67;;;;;;;;;;4922006;28;20314;-72
2022/01/29 02:41:46;;;;;;;58.03;36.90;;;;;;;;;;4907898;29;20242;-73
2022/01/29 02:44:21;;;;;;;62.53;34.57;;;;;;;;;;4884706;29;20228;-74
2022/01/29 02:46:57;;;;;;;57.90;34.37;;;;;;;;;;4907967;29;20639;-73
2022/01/29 02:49:27;;;;;;;60.87;34.63;;;;;;;;;;4954827;28;20218;-72
2022/01/29 02:51:58;;;;;;;56.80;34.60;;;;;;;;;;4927054;29;20219;-73
2022/01/29 02:54:24;;;;;;;54.70;32.87;;;;;;;;;;4918623;29;20302;-72
2022/01/29 02:56:50;;;;;;;56.03;34.30;;;;;;;;;;4928269;29;20250;-73
2022/01/29 02:59:18;;;;;;;58.77;34.23;;;;;;;;;;4953157;28;20251;-73
2022/01/29 03:01:45;;;;;;;56.33;33.87;;;;;;;;;;4945134;28;20219;-72
2022/01/29 03:04:11;;;;;;;56.87;30.97;;;;;;;;;;4935988;29;20255;-73
2022/01/29 03:06:44;;;;;;;52.00;31.40;;;;;;;;;;4944114;29;20242;-73
2022/01/29 03:09:09;;;;;;;56.60;33.00;;;;;;;;;;4922266;28;20243;-74
2022/01/29 03:11:37;;;;;;;49.53;30.13;;;;;;;;;;4947519;29;20220;-73
2022/01/29 03:14:07;;;;;;;55.07;30.50;;;;;;;;;;4934395;29;20235;-72
2022/01/29 03:16:35;;;;;;;50.17;30.77;;;;;;;;;;4939655;29;20310;-73
2022/01/29 03:19:01;;;;;;;53.10;31.60;;;;;;;;;;4938145;29;20739;-73
2022/01/29 03:21:33;;;;;;;49.93;31.40;;;;;;;;;;4914358;29;20216;-72
2022/01/29 03:23:59;;;;;;;43.87;27.87;;;;;;;;;;4917705;29;20601;-73
2022/01/29 03:26:27;;;;;;;50.43;29.20;;;;;;;;;;4935889;29;20264;-72
2022/01/29 03:28:57;;;;;;;46.67;28.87;;;;;;;;;;4937319;29;20313;-73
2022/01/29 03:31:29;;;;;;;47.17;30.13;;;;;;;;;;4924360;28;20219;-74
2022/01/29 03:33:54;;;;;;;47.83;29.43;;;;;;;;;;4933014;29;20259;-73
2022/01/29 03:36:23;;;;;;;46.33;30.40;;;;;;;;;;4935654;28;20295;-73
2022/01/29 03:38:48;;;;;;;47.17;28.93;;;;;;;;;;4936794;29;20226;-73
2022/01/29 03:41:16;;;;;;;38.83;25.53;;;;;;;;;;4904763;28;20355;-72
2022/01/29 03:43:47;;;;;;;47.50;27.67;;;;;;;;;;4930255;29;20224;-73
2022/01/29 03:46:15;;;;;;;48.47;27.70;;;;;;;;;;4915519;29;20232;-73
2022/01/29 03:48:41;;;;;;;45.20;28.07;;;;;;;;;;4934573;29;20226;-73
2022/01/29 03:51:11;;;;;;;43.93;28.33;;;;;;;;;;4952645;28;20254;-73
2022/01/29 03:53:38;;;;;;;44.10;28.53;;;;;;;;;;4917031;29;20232;-72
2022/01/29 03:56:07;;;;;;;45.10;27.77;;;;;;;;;;4914338;29;20231;-72
2022/01/29 03:58:35;;;;;;;44.83;26.93;;;;;;;;;;4929889;29;20234;-72
2022/01/29 04:01:00;;;;;;;42.57;27.17;;;;;;;;;;4953023;29;20235;-72
2022/01/29 04:03:26;;;;;;;43.83;28.90;;;;;;;;;;4944055;28;20223;-73
2022/01/29 04:05:53;;;;;;;44.03;27.67;;;;;;;;;;4931911;29;20306;-73
2022/01/29 04:08:23;;;;;;;42.67;26.33;;;;;;;;;;4916243;29;20309;-73
2022/01/29 04:10:53;;;;;;;45.57;29.20;;;;;;;;;;4921789;29;20227;-72
2022/01/29 04:13:23;;;;;;;47.63;29.53;;;;;;;;;;4925332;28;20732;-72
2022/01/29 04:15:48;;;;;;;45.50;29.43;;;;;;;;;;4938720;29;20218;-72
2022/01/29 04:18:14;;;;;;;45.97;30.27;;;;;;;;;;4927668;29;20263;-73
2022/01/29 04:20:44;;;;;;;48.17;28.30;;;;;;;;;;4934629;29;20306;-72
2022/01/29 04:23:12;;;;;;;42.37;27.97;;;;;;;;;;4942204;28;20231;-74
2022/01/29 04:25:38;;;;;;;45.73;28.30;;;;;;;;;;4952848;29;20223;-72
2022/01/29 04:28:09;;;;;;;47.57;30.43;;;;;;;;;;4941173;29;20239;-72
2022/01/29 04:30:56;;;;;;;42.93;27.87;;;;;;;;;;4884050;29;20231;-74
2022/01/29 04:33:28;;;;;;;48.10;29.13;;;;;;;;;;4919412;28;20709;-72
2022/01/29 04:36:00;;;;;;;47.90;29.70;;;;;;;;;;4922591;29;20309;-72
2022/01/29 04:38:27;;;;;;;51.90;32.03;;;;;;;;;;4942530;29;20245;-72
2022/01/29 04:40:53;;;;;;;48.73;30.90;;;;;;;;;;4901141;29;20219;-73
2022/01/29 04:43:18;;;;;;;48.93;29.37;;;;;;;;;;4923763;28;20724;-72
2022/01/29 04:45:46;;;;;;;51.80;31.97;;;;;;;;;;4919946;29;20218;-73
2022/01/29 04:48:16;;;;;;;52.80;32.13;;;;;;;;;;4926203;29;20224;-72
2022/01/29 04:50:43;;;;;;;55.23;34.03;;;;;;;;;;4914110;29;20231;-73
2022/01/29 04:53:12;;;;;;;55.40;31.63;;;;;;;;;;4922456;28;20223;-73
2022/01/29 04:55:40;;;;;;;54.10;33.30;;;;;;;;;;4936686;29;20736;-73
2022/01/29 04:58:08;;;;;;;51.87;30.50;;;;;;;;;;4947660;28;20446;-73
2022/01/29 05:00:35;;;;;;;58.30;31.27;;;;;;;;;;4917299;29;20278;-73
2022/01/29 05:03:12;;;;;;;52.37;32.57;;;;;;;;;;4934226;28;20288;-72
2022/01/29 05:05:41;;;;;;;49.50;31.00;;;;;;;;;;4948957;28;20222;-72
2022/01/29 05:08:12;;;;;;;54.50;30.53;;;;;;;;;;4916813;28;20266;-73
2022/01/29 05:10:40;;;;;;;62.50;33.97;;;;;;;;;;4932791;29;20709;-75
2022/01/29 05:13:12;;;;;;;56.87;33.50;;;;;;;;;;4918110;28;20232;-75
2022/01/29 05:15:44;;;;;;;60.20;33.80;;;;;;;;;;4951864;29;20233;-73
2022/01/29 05:29:18;;;;;;;63.53;32.37;;;;;;;;;;4943277;28;20338;-74
2022/01/29 05:31:51;;;;;;;53.87;32.00;;;;;;;;;;4916600;29;20732;-74
2022/01/29 05:34:19;;;;;;;55.67;28.93;;;;;;;;;;4925708;28;20230;-73
2022/01/29 05:36:45;;;;;;;52.50;30.87;;;;;;;;;;4951468;29;20218;-73
2022/01/29 05:39:13;;;;;;;58.20;35.67;;;;;;;;;;4924858;29;20320;-74
2022/01/29 05:41:39;;;;;;;56.93;31.80;;;;;;;;;;4913017;29;20215;-72
2022/01/29 05:44:09;;;;;;;52.63;31.10;;;;;;;;;;4923999;28;20668;-74
2022/01/29 05:46:34;;;;;;;61.70;33.73;;;;;;;;;;4920274;29;20226;-74
2022/01/29 05:49:02;;;;;;;57.03;32.60;;;;;;;;;;4911897;29;20228;-74
2022/01/29 05:51:32;;;;;;;47.83;30.17;;;;;;;;;;4881031;29;20228;-73
2022/01/29 05:54:01;;;;;;;59.00;33.57;;;;;;;;;;4889309;29;20233;-73
2022/01/29 05:56:29;;;;;;;60.17;33.13;;;;;;;;;;4921358;29;20297;-73
2022/01/29 05:58:56;;;;;;;52.27;29.03;;;;;;;;;;4905078;29;20314;-74
2022/01/29 06:01:22;;;;;;;56.27;33.37;;;;;;;;;;4919988;28;20265;-73
2022/01/29 06:03:47;;;;;;;55.60;31.43;;;;;;;;;;4936026;29;20227;-74
2022/01/29 06:06:13;;;;;;;55.13;32.40;;;;;;;;;;4922145;28;20234;-73
2022/01/29 06:08:43;;;;;;;63.77;34.17;;;;;;;;;;4954609;28;20231;-73
2022/01/29 06:11:11;;;;;;;54.73;30.93;;;;;;;;;;4916623;29;20243;-73
2022/01/29 06:13:36;;;;;;;54.00;32.57;;;;;;;;;;4900560;29;20231;-73
2022/01/29 06:16:02;;;;;;;54.80;32.77;;;;;;;;;;4934413;28;20313;-73
2022/01/29 06:18:31;;;;;;;63.83;33.73;;;;;;;;;;4923083;29;20327;-73
2022/01/29 06:21:04;;;;;;;60.73;35.80;;;;;;;;;;4938369;29;20220;-72
2022/01/29 06:23:32;;;;;;;58.53;36.13;;;;;;;;;;4934957;29;20238;-73
2022/01/29 06:26:00;;;;;;;66.07;36.67;;;;;;;;;;4924962;29;20282;-73
2022/01/29 06:28:26;;;;;;;60.40;32.83;;;;;;;;;;4938900;28;20239;-74
2022/01/29 06:30:59;;;;;;;62.17;34.27;;;;;;;;;;4905562;29;20227;-74
2022/01/29 06:33:25;;;;;;;65.47;37.33;;;;;;;;;;4900401;29;20262;-73
2022/01/29 06:35:52;;;;;;;63.50;36.47;;;;;;;;;;4943299;28;20246;-73
2022/01/29 06:38:21;;;;;;;67.23;33.17;;;;;;;;;;4938155;28;20227;-73
2022/01/29 06:40:47;;;;;;;62.40;33.57;;;;;;;;;;4907876;29;20667;-73
2022/01/29 06:43:14;;;;;;;69.43;38.47;;;;;;;;;;4914779;29;20224;-73
2022/01/29 06:45:41;;;;;;;65.77;36.07;;;;;;;;;;4936688;29;20227;-74
2022/01/29 06:48:06;;;;;;;60.93;34.70;;;;;;;;;;4921486;28;20625;-74
2022/01/29 06:50:32;;;;;;;65.87;35.13;;;;;;;;;;4910504;29;20220;-73
2022/01/29 06:52:58;;;;;;;59.13;35.47;;;;;;;;;;4915114;29;20615;-73
2022/01/29 06:55:26;;;;;;;58.90;32.60;;;;;;;;;;4912747;28;20211;-73
2022/01/29 06:57:54;;;;;;;64.77;34.77;;;;;;;;;;4938133;28;20227;-72
2022/01/29 07:00:27;;;;;;;58.70;33.60;;;;;;;;;;4947589;28;20227;-72
2022/01/29 07:02:55;;;;;;;61.50;36.77;;;;;;;;;;4934744;29;20215;-72
2022/01/29 07:05:21;;;;;;;62.27;33.93;;;;;;;;;;4938946;28;20324;-73
2022/01/29 07:07:49;;;;;;;58.70;36.63;;;;;;;;;;4937890;28;20227;-73
2022/01/29 07:10:17;;;;;;;51.47;28.10;;;;;;;;;;4935446;28;20222;-73
2022/01/29 07:12:45;;;;;;;61.53;35.23;;;;;;;;;;4903645;29;20259;-74
2022/01/29 07:15:13;;;;;;;58.23;31.80;;;;;;;;;;4936045;28;20233;-73
2022/01/29 07:17:41;;;;;;;54.83;32.17;;;;;;;;;;4922435;28;20223;-72
2022/01/29 07:20:10;;;;;;;53.17;30.13;;;;;;;;;;4935606;28;20229;-74
2022/01/29 07:22:40;;;;;;;56.60;33.33;;;;;;;;;;4934144;29;20254;-73
2022/01/29 07:25:10;;;;;;;53.37;31.27;;;;;;;;;;4887851;29;20234;-73
2022/01/29 07:27:35;;;;;;;48.67;27.73;;;;;;;;;;4930918;29;20228;-73
2022/01/29 07:30:01;;;;;;;52.63;32.77;;;;;;;;;;4899692;29;20307;-73
2022/01/29 07:32:26;;;;;;;49.87;31.03;;;;;;;;;;4952144;28;20732;-74
2022/01/29 07:34:54;;;;;;;47.13;29.63;;;;;;;;;;4937654;29;20222;-73
2022/01/29 07:37:25;;;;;;;50.60;30.40;;;;;;;;;;4931939;29;20228;-74
2022/01/29 07:39:50;;;;;;;49.90;30.87;;;;;;;;;;4884542;29;20307;-73
2022/01/29 07:42:16;;;;;;;45.80;27.57;;;;;;;;;;4929610;28;20746;-73
2022/01/29 07:44:54;;;;;;;45.93;29.40;;;;;;;;;;4937429;29;20594;-73
2022/01/29 07:47:19;;;;;;;38.47;24.30;;;;;;;;;;4937129;28;20715;-73
2022/01/29 07:49:47;;;;;;;44.40;28.33;;;;;;;;;;4917494;29;20303;-73
2022/01/29 07:52:20;;;;;;;44.47;27.00;;;;;;;;;;4931838;28;20246;-74
2022/01/29 07:54:48;;;;;;;43.00;26.70;;;;;;;;;;4952991;29;20282;-73
2022/01/29 07:57:18;;;;;;;35.60;22.93;;;;;;;;;;4939214;28;20583;-73
2022/01/29 07:59:46;;;;;;;45.90;29.50;;;;;;;;;;4918694;29;20219;-72
2022/01/29 08:02:11;;;;;;;41.03;24.47;;;;;;;;;;4946662;28;20301;-73
2022/01/29 08:04:39;;;;;;;40.13;24.33;;;;;;;;;;4920783;29;20255;-72
2022/01/29 08:07:07;;;;;;;41.60;25.53;;;;;;;;;;4909724;29;20357;-73
2022/01/29 08:09:32;;;;;;;38.67;25.10;;;;;;;;;;4935003;29;20257;-73
2022/01/29 08:12:00;;;;;;;45.57;27.40;;;;;;;;;;4942517;29;20309;-73
2022/01/29 08:14:26;;;;;;;41.43;27.57;;;;;;;;;;4936219;28;20238;-74
2022/01/29 08:16:51;;;;;;;37.90;23.43;;;;;;;;;;4909861;29;20307;-73
2022/01/29 08:19:16;;;;;;;41.73;27.30;;;;;;;;;;4897590;29;20304;-73
2022/01/29 08:21:44;;;;;;;42.93;26.33;;;;;;;;;;4895548;29;20606;-72
2022/01/29 08:24:13;;;;;;;37.90;26.23;;;;;;;;;;4953359;28;20784;-73
2022/01/29 08:26:38;;;;;;;38.10;24.13;;;;;;;;;;4921179;29;20224;-73
2022/01/29 08:29:04;;;;;;;38.07;24.33;;;;;;;;;;4952203;28;20231;-74
2022/01/29 08:31:34;;;;;;;37.43;24.20;;;;;;;;;;4948879;29;20216;-73
2022/01/29 08:34:02;;;;;;;34.23;23.20;;;;;;;;;;4933208;29;20231;-73
2022/01/29 08:36:28;;;;;;;32.40;20.73;;;;;;;;;;4934455;29;20235;-74
2022/01/29 08:38:53;;;;;;;32.53;21.17;;;;;;;;;;4952987;28;20253;-73
2022/01/29 08:41:21;;;;;;;30.20;22.03;;;;;;;;;;4935561;28;20265;-73
2022/01/29 08:43:49;;;;;;;32.27;21.13;;;;;;;;;;4932345;29;20261;-73
2022/01/29 08:46:17;;;;;;;31.13;20.40;;;;;;;;;;4933765;28;20283;-73
2022/01/29 08:48:45;;;;;;;26.77;17.33;;;;;;;;;;4951523;28;20231;-74
2022/01/29 08:51:10;;;;;;;33.30;21.40;;;;;;;;;;4935677;28;20951;-73
2022/01/29 08:53:39;;;;;;;28.77;19.20;;;;;;;;;;4900507;29;20242;-74
2022/01/29 08:56:07;;;;;;;26.07;17.90;;;;;;;;;;4913610;29;20228;-73
2022/01/29 08:58:32;;;;;;;34.13;24.17;;;;;;;;;;4929518;29;20235;-74
2022/01/29 09:01:07;;;;;;;27.13;17.83;;;;;;;;;;4951771;28;20226;-74
2022/01/29 09:03:35;;;;;;;28.27;19.33;;;;;;;;;;4933003;29;20275;-73
2022/01/29 09:06:00;;;;;;;25.40;18.63;;;;;;;;;;4913728;29;20224;-73
2022/01/29 09:08:31;;;;;;;23.93;17.10;;;;;;;;;;4906092;28;20218;-74
2022/01/29 09:10:57;;;;;;;22.57;18.30;;;;;;;;;;4920145;29;20218;-75
2022/01/29 09:13:25;;;;;;;20.97;16.37;;;;;;;;;;4937874;28;20235;-72
2022/01/29 09:15:51;;;;;;;25.23;18.27;;;;;;;;;;4932287;29;20226;-73
2022/01/29 09:18:16;;;;;;;22.67;17.47;;;;;;;;;;4916570;29;20231;-73
2022/01/29 09:20:44;;;;;;;22.80;16.73;;;;;;;;;;4932362;29;20219;-73
2022/01/29 09:23:12;;;;;;;22.43;16.73;;;;;;;;;;4931062;29;20585;-73
2022/01/29 09:25:38;;;;;;;17.87;13.63;;;;;;;;;;4934014;29;20234;-73
2022/01/29 09:28:04;;;;;;;18.27;13.87;;;;;;;;;;4929077;29;20227;-73
2022/01/29 09:30:33;;;;;;;16.03;12.43;;;;;;;;;;4883045;29;20224;-73
2022/01/29 09:33:01;;;;;;;18.33;14.33;;;;;;;;;;4898937;29;20717;-73
2022/01/29 09:35:29;;;;;;;19.23;14.97;;;;;;;;;;4940740;29;20235;-73
2022/01/29 09:37:57;;;;;;;17.87;13.80;;;;;;;;;;4942209;28;20636;-72
2022/01/29 09:40:23;;;;;;;17.87;14.23;;;;;;;;;;4940534;28;20219;-72
2022/01/29 09:42:50;;;;;;;23.57;17.60;;;;;;;;;;4949975;29;20219;-72
2022/01/29 09:45:21;;;;;;;19.67;14.30;;;;;;;;;;4917730;29;20315;-73
2022/01/29 09:47:49;;;;;;;20.73;13.83;;;;;;;;;;4924186;28;20218;-73
2022/01/29 09:50:18;;;;;;;16.63;13.17;;;;;;;;;;4954666;28;20720;-74
2022/01/29 09:52:43;;;;;;;15.53;11.80;;;;;;;;;;4952485;29;20235;-73
2022/01/29 09:55:11;;;;;;;20.10;16.37;;;;;;;;;;4919792;28;20242;-73
2022/01/29 09:57:39;;;;;;;16.17;12.50;;;;;;;;;;4937551;28;20223;-73
2022/01/29 10:00:12;;;;;;;16.00;13.37;;;;;;;;;;4955513;28;20223;-73
2022/01/29 10:02:38;;;;;;;16.60;13.33;;;;;;;;;;4954651;29;20272;-74
2022/01/29 10:05:05;;;;;;;18.20;15.33;;;;;;;;;;4919698;28;20224;-73
2022/01/29 10:07:35;;;;;;;13.67;10.70;;;;;;;;;;4919971;29;20215;-73
2022/01/29 10:10:01;;;;;;;13.13;11.40;;;;;;;;;;4953695;29;20227;-72
2022/01/29 10:12:32;;;;;;;16.20;13.83;;;;;;;;;;4938184;28;20229;-72
2022/01/29 10:15:07;;;;;;;15.33;13.60;;;;;;;;;;4918195;29;20217;-73
2022/01/29 10:17:54;;;;;;;18.77;13.77;;;;;;;;;;4901049;29;20722;-72
2022/01/29 10:20:24;;;;;;;14.57;11.70;;;;;;;;;;4903504;29;20219;-72
2022/01/29 10:23:00;;;;;;;14.50;12.87;;;;;;;;;;4935385;29;20212;-73
2022/01/29 10:25:33;;;;;;;14.03;11.33;;;;;;;;;;4901256;29;20212;-74
2022/01/29 10:28:14;;;;;;;15.63;12.50;;;;;;;;;;4916548;29;20284;-72
2022/01/29 10:30:50;;;;;;;13.40;11.80;;;;;;;;;;4916783;29;20311;-73
2022/01/29 10:33:20;;;;;;;12.90;9.70;;;;;;;;;;4917886;29;20232;-75
2022/01/29 10:35:50;;;;;;;12.83;10.00;;;;;;;;;;4955899;28;20222;-74
2022/01/29 10:38:21;;;;;;;13.60;10.47;;;;;;;;;;4954773;28;20230;-73
2022/01/29 10:40:47;;;;;;;11.63;9.70;;;;;;;;;;4903847;29;20242;-73
2022/01/29 10:43:17;;;;;;;11.10;8.40;;;;;;;;;;4918109;28;20215;-73
2022/01/29 10:45:49;;;;;;;10.33;9.23;;;;;;;;;;4916321;29;20303;-72
2022/01/29 10:48:17;;;;;;;10.00;8.47;;;;;;;;;;4916728;29;20232;-72
2022/01/29 10:50:47;;;;;;;9.17;7.80;;;;;;;;;;4953969;28;20259;-72
2022/01/29 10:53:24;;;;;;;9.80;8.73;;;;;;;;;;4922487;28;20243;-75
2022/01/29 10:56:03;;;;;;;10.53;8.23;;;;;;;;;;4919654;29;20322;-73
2022/01/29 10:58:30;;;;;;;9.97;8.57;;;;;;;;;;4934799;29;20231;-74
2022/01/29 11:01:14;;;;;;;9.50;8.37;;;;;;;;;;4954775;28;20222;-74
2022/01/29 11:03:42;;;;;;;8.77;7.80;;;;;;;;;;4954399;28;20230;-73
2022/01/29 11:06:13;;;;;;;9.27;8.07;;;;;;;;;;4919186;28;20231;-74
2022/01/29 11:08:43;;;;;;;8.77;7.67;;;;;;;;;;4934960;29;20250;-75
2022/01/29 11:11:11;;;;;;;10.80;9.70;;;;;;;;;;4933921;29;20239;-73
2022/01/29 11:13:39;;;;;;;10.03;8.50;;;;;;;;;;4918495;29;20247;-73
2022/01/29 11:16:07;;;;;;;9.90;8.63;;;;;;;;;;4905666;28;20249;-73
2022/01/29 11:18:35;;;;;;;11.37;8.27;;;;;;;;;;4923174;29;20875;-72
2022/01/29 11:21:03;;;;;;;9.23;8.23;;;;;;;;;;4932225;29;20880;-73
2022/01/29 11:23:31;;;;;;;10.43;9.10;;;;;;;;;;4915243;29;20232;-73
2022/01/29 11:26:00;;;;;;;11.07;9.07;;;;;;;;;;4931287;29;20246;-74
2022/01/29 11:28:27;;;;;;;10.07;8.93;;;;;;;;;;4921259;28;20314;-73
2022/01/29 11:31:28;;;;;;;11.60;10.37;;;;;;;;;;4922946;29;20219;-73
2022/01/29 11:33:59;;;;;;;10.23;9.13;;;;;;;;;;4924048;29;20231;-74
2022/01/29 11:36:46;;;;;;;10.93;9.30;;;;;;;;;;4933902;29;20705;-74
2022/01/29 11:39:24;;;;;;;9.90;8.40;;;;;;;;;;4935040;29;20227;-74
2022/01/29 11:42:13;;;;;;;10.77;9.33;;;;;;;;;;4914858;29;20254;-74
2022/01/29 11:44:42;;;;;;;8.37;7.13;;;;;;;;;;4931138;29;20230;-73
2022/01/29 11:47:25;;;;;;;10.97;9.07;;;;;;;;;;4936662;28;20233;-73
2022/01/29 11:50:19;;;;;;;9.90;8.30;;;;;;;;;;4950493;28;20220;-73
2022/01/29 11:53:01;;;;;;;10.70;8.37;;;;;;;;;;4934692;28;20238;-74
2022/01/29 11:55:42;;;;;;;10.50;9.17;;;;;;;;;;4940469;28;20270;-74
2022/01/29 11:58:20;;;;;;;10.63;9.57;;;;;;;;;;4953585;28;20231;-73
2022/01/29 12:00:57;;;;;;;9.27;8.37;;;;;;;;;;4943270;29;20258;-73
2022/01/29 12:03:35;;;;;;;9.30;8.33;;;;;;;;;;4932703;28;20286;-73
2022/01/29 12:06:24;;;;;;;9.63;7.93;;;;;;;;;;4944662;29;20314;-73
2022/01/29 12:09:14;;;;;;;9.97;8.03;;;;;;;;;;4953331;28;20237;-74
2022/01/29 12:11:44;;;;;;;10.10;8.47;;;;;;;;;;4936730;29;20677;-74
2022/01/29 12:14:12;;;;;;;10.17;7.93;;;;;;;;;;4918456;28;20235;-73
2022/01/29 12:16:56;;;;;;;10.60;9.10;;;;;;;;;;4948183;29;20588;-73
2022/01/29 12:19:34;;;;;;;11.47;9.53;;;;;;;;;;4959785;28;20238;-74
2022/01/29 12:22:21;;;;;;;9.00;8.10;;;;;;;;;;4962799;29;20262;-73
2022/01/29 12:24:55;;;;;;;8.97;8.07;;;;;;;;;;4947337;29;20233;-73
2022/01/29 12:27:38;;;;;;;11.03;9.37;;;;;;;;;;4925375;29;20286;-73
2022/01/29 12:30:08;;;;;;;10.17;8.77;;;;;;;;;;4922095;29;20224;-73
2022/01/29 12:32:34;;;;;;;9.77;8.13;;;;;;;;;;4956746;29;20286;-73
2022/01/29 12:35:03;;;;;;;8.80;7.97;;;;;;;;;;4941269;29;20219;-74
2022/01/29 12:37:29;;;;;;;9.27;8.37;;;;;;;;;;4922098;29;20224;-73
2022/01/29 12:40:25;;;;;;;9.80;7.80;;;;;;;;;;4935055;29;20242;-74
2022/01/29 12:43:10;;;;;;;8.83;7.93;;;;;;;;;;4915681;29;20306;-74
2022/01/29 12:45:38;;;;;;;8.73;7.77;;;;;;;;;;4916447;29;20222;-72
2022/01/29 12:48:15;;;;;;;8.70;7.80;;;;;;;;;;4913272;29;20231;-74
2022/01/29 12:50:48;;;;;;;10.70;8.43;;;;;;;;;;4888466;29;20230;-74
2022/01/29 12:53:18;;;;;;;8.13;7.33;;;;;;;;;;4920275;28;20306;-75
2022/01/29 12:55:43;;;;;;;10.33;9.23;;;;;;;;;;4902766;29;20724;-74
2022/01/29 12:58:09;;;;;;;13.40;10.20;;;;;;;;;;4916596;28;20322;-74
2022/01/29 13:00:39;;;;;;;10.97;9.77;;;;;;;;;;4933502;29;20223;-74
2022/01/29 13:03:10;;;;;;;13.47;10.57;;;;;;;;;;4936214;28;20330;-73
2022/01/29 13:05:43;;;;;;;12.10;9.80;;;;;;;;;;4936235;29;20234;-73
2022/01/29 13:08:12;;;;;;;12.13;9.17;;;;;;;;;;4897914;29;20833;-73
2022/01/29 13:10:37;;;;;;;12.43;11.00;;;;;;;;;;4898469;29;20220;-72
2022/01/29 13:13:03;;;;;;;11.70;10.47;;;;;;;;;;4946995;28;20728;-73
2022/01/29 13:15:43;;;;;;;10.27;9.17;;;;;;;;;;4936696;29;20218;-74
2022/01/29 13:18:09;;;;;;;12.00;9.67;;;;;;;;;;4933499;29;20239;-74
2022/01/29 13:20:35;;;;;;;10.37;9.27;;;;;;;;;;4932701;29;20223;-73
2022/01/29 13:23:05;;;;;;;9.97;8.57;;;;;;;;;;4950578;28;20306;-72
2022/01/29 13:25:35;;;;;;;10.57;8.87;;;;;;;;;;4936345;29;20864;-73
2022/01/29 13:28:06;;;;;;;13.33;9.97;;;;;;;;;;4935540;29;20238;-72
2022/01/29 13:30:34;;;;;;;12.53;10.10;;;;;;;;;;4933166;29;20617;-75
2022/01/29 13:33:21;;;;;;;13.13;9.80;;;;;;;;;;4947502;29;20231;-73
2022/01/29 13:35:52;;;;;;;13.97;12.47;;;;;;;;;;4935851;29;20225;-74
2022/01/29 13:38:27;;;;;;;9.07;8.03;;;;;;;;;;4935490;28;20243;-74
2022/01/29 13:40:57;;;;;;;10.40;9.33;;;;;;;;;;4932685;29;20612;-75
2022/01/29 13:43:41;;;;;;;12.97;11.50;;;;;;;;;;4948486;28;20241;-75
2022/01/29 13:46:17;;;;;;;9.70;8.00;;;;;;;;;;4951512;28;20261;-74
2022/01/29 13:48:51;;;;;;;10.30;9.20;;;;;;;;;;4897748;29;20593;-74
2022/01/29 13:51:35;;;;;;;10.33;8.10;;;;;;;;;;4901974;29;20633;-75
2022/01/29 13:54:02;;;;;;;10.67;9.57;;;;;;;;;;4913536;29;20673;-73
2022/01/29 13:56:30;;;;;;;9.80;8.73;;;;;;;;;;4929201;29;20604;-73
2022/01/29 13:59:01;;;;;;;10.40;8.60;;;;;;;;;;4951215;28;20691;-73
2022/01/29 14:01:54;;;;;;;11.17;8.80;;;;;;;;;;4935738;28;20603;-73
2022/01/29 14:04:25;;;;;;;8.27;7.17;;;;;;;;;;4912954;29;20733;-73
2022/01/29 14:07:01;;;;;;;9.43;7.00;;;;;;;;;;4918010;29;20398;-73
2022/01/29 14:11:58;;;;;;;8.50;7.53;;;;;;;;;;4950472;28;20234;-72
2022/01/29 14:14:27;;;;;;;9.10;8.20;;;;;;;;;;4931617;28;20235;-74
2022/01/29 14:16:55;;;;;;;10.30;7.63;;;;;;;;;;4933780;29;20223;-73
2022/01/29 14:19:22;;;;;;;8.93;7.80;;;;;;;;;;4938785;28;20227;-73
2022/01/29 14:21:51;;;;;;;10.33;7.17;;;;;;;;;;4923160;29;20306;-73
2022/01/29 14:24:17;;;;;;;11.43;8.93;;;;;;;;;;4951242;28;20303;-73
2022/01/29 14:26:42;;;;;;;9.07;7.93;;;;;;;;;;4937078;28;20211;-74
2022/01/29 14:29:08;;;;;;;8.53;7.63;;;;;;;;;;4953587;28;20238;-74
2022/01/29 14:31:33;;;;;;;8.97;7.87;;;;;;;;;;4938432;29;20223;-74
2022/01/29 14:34:00;;;;;;;10.60;7.43;;;;;;;;;;4936004;29;20232;-74
2022/01/29 14:36:26;;;;;;;8.97;7.77;;;;;;;;;;4916115;29;20299;-74
2022/01/29 14:38:54;;;;;;;8.37;7.47;;;;;;;;;;4943509;28;20239;-74
2022/01/29 14:41:24;;;;;;;9.50;8.20;;;;;;;;;;4922100;28;20790;-74
2022/01/29 14:43:50;;;;;;;10.50;7.03;;;;;;;;;;4942968;28;20275;-74
2022/01/29 14:46:17;;;;;;;10.23;7.87;;;;;;;;;;4935157;28;20223;-73
2022/01/29 14:48:43;;;;;;;9.97;7.00;;;;;;;;;;4914935;29;20302;-73